createdAt,value
2023-01-17T00:02:12.690Z,99970.08
2023-01-17T00:04:58.280Z,99966.91
2023-01-17T00:07:43.657Z,99962.66
2023-01-17T00:10:13.712Z,99962.48
2023-01-17T00:13:07.481Z,99967.70
2023-01-17T00:15:39.936Z,99965.26
2023-01-17T00:18:06.863Z,99964.56
2023-01-17T00:20:52.668Z,99969.55
2023-01-17T00:23:40.156Z,99965.27
2023-01-17T00:26:11.494Z,99967.88
2023-01-17T00:28:40.788Z,99968.94
2023-01-17T00:31:09.907Z,99971.35
2023-01-17T00:33:36.779Z,99971.35
2023-01-17T00:36:03.977Z,99970.11
2023-01-17T00:38:32.375Z,99966.89
2023-01-17T00:41:03.763Z,99961.02
2023-01-17T00:43:49.474Z,99958.59
2023-01-17T00:46:35.411Z,99962.04
2023-01-17T00:49:21.627Z,99964.50
2023-01-17T00:52:07.345Z,99963.80
2023-01-17T00:54:52.984Z,99960.53
2023-01-17T00:57:38.319Z,99961.77
2023-01-17T01:00:24.945Z,99963.52
2023-01-17T01:03:10.435Z,99961.30
2023-01-17T01:05:56.654Z,99960.59
2023-01-17T01:08:43.860Z,99959.59
2023-01-17T01:11:33.347Z,99956.50
2023-01-17T01:14:18.855Z,99960.33
2023-01-17T01:17:04.602Z,99956.02
2023-01-17T01:19:50.130Z,99960.16
2023-01-17T01:22:35.818Z,99954.68
2023-01-17T01:25:21.413Z,99956.93
2023-01-17T01:28:07.203Z,99952.61
2023-01-17T01:30:53.100Z,99946.85
2023-01-17T01:33:20.042Z,99944.23
2023-01-17T01:35:54.812Z,99943.83
2023-01-17T01:38:23.259Z,99932.95
2023-01-17T01:40:54.181Z,99935.09
2023-01-17T01:43:39.159Z,99927.54
2023-01-17T01:46:06.016Z,99929.35
2023-01-17T01:48:36.548Z,99928.89
2023-01-17T01:51:05.361Z,99931.53
2023-01-17T01:53:33.381Z,99928.10
2023-01-17T01:56:00.224Z,99929.14
2023-01-17T01:58:28.027Z,99929.16
2023-01-17T02:00:55.010Z,99926.30
2023-01-17T02:03:25.806Z,99923.19
2023-01-17T02:05:52.757Z,99927.91
2023-01-17T02:08:20.611Z,99927.81
2023-01-17T02:10:47.725Z,99921.27
2023-01-17T02:13:16.065Z,99922.98
2023-01-17T02:15:54.421Z,99918.33
2023-01-17T02:18:34.443Z,99913.48
2023-01-17T02:21:07.486Z,99915.52
2023-01-17T02:23:52.933Z,99919.48
2023-01-17T02:26:52.791Z,99917.21
2023-01-17T02:29:38.563Z,99923.88
2023-01-17T02:32:11.976Z,99914.12
2023-01-17T02:34:41.698Z,99910.80
2023-01-17T02:37:21.847Z,99921.64
2023-01-17T02:39:58.927Z,99915.14
2023-01-17T02:42:30.237Z,99925.98
2023-01-17T02:44:57.068Z,99922.79
2023-01-17T02:47:24.941Z,99914.35
2023-01-17T02:49:53.459Z,99916.05
2023-01-17T02:52:50.172Z,99914.60
2023-01-17T02:55:23.212Z,99915.05
2023-01-17T02:58:13.253Z,99921.39
2023-01-17T03:00:45.007Z,99908.29
2023-01-17T03:03:11.859Z,99904.42
2023-01-17T03:05:48.629Z,99909.72
2023-01-17T03:08:15.600Z,99907.80
2023-01-17T03:10:42.595Z,99909.73
2023-01-17T03:13:10.263Z,99906.40
2023-01-17T03:29:39.998Z,99904.38
2023-01-17T03:32:06.528Z,99902.67
2023-01-17T03:34:33.196Z,99903.66
2023-01-17T03:36:59.513Z,99905.61
2023-01-17T03:39:26.211Z,99902.45
2023-01-17T03:41:52.669Z,99901.53
2023-01-17T03:44:19.263Z,99899.59
2023-01-17T03:46:46.283Z,99892.90
2023-01-17T03:49:13.362Z,99896.61
2023-01-17T03:51:39.844Z,99892.63
2023-01-17T03:54:06.486Z,99891.43
2023-01-17T03:56:34.944Z,99892.55
2023-01-17T03:59:01.490Z,99891.93
2023-01-17T04:01:28.112Z,99879.52
2023-01-17T04:03:56.791Z,99884.73
2023-01-17T04:06:23.242Z,99881.58
2023-01-17T04:08:50.501Z,99882.45
2023-01-17T04:11:16.876Z,99883.23
2023-01-17T04:13:43.740Z,99885.52
2023-01-17T04:16:13.092Z,99881.67
2023-01-17T04:18:39.404Z,99891.48
2023-01-17T04:21:07.212Z,99890.02
2023-01-17T04:23:34.209Z,99899.51
2023-01-17T04:26:00.765Z,99899.63
2023-01-17T04:28:27.279Z,99893.58
2023-01-17T04:30:57.534Z,99896.48
2023-01-17T04:33:26.439Z,99898.69
2023-01-17T04:35:54.091Z,99891.07
2023-01-17T04:38:23.205Z,99892.88
2023-01-17T04:40:50.269Z,99892.33
2023-01-17T04:43:17.048Z,99897.07
2023-01-17T04:45:46.074Z,99898.45
2023-01-17T04:48:12.835Z,99895.69
2023-01-17T04:50:39.453Z,99887.91
2023-01-17T04:53:05.857Z,99888.16
2023-01-17T04:55:32.493Z,99885.54
2023-01-17T04:57:58.836Z,99897.10
2023-01-17T05:00:25.137Z,99895.19
2023-01-17T05:02:51.648Z,99895.44
2023-01-17T05:05:18.829Z,99896.96
2023-01-17T05:07:52.869Z,99893.27
2023-01-17T05:10:19.169Z,99891.02
2023-01-17T05:12:53.447Z,99887.29
2023-01-17T05:15:19.815Z,99890.99
2023-01-17T05:17:46.154Z,99896.20
2023-01-17T05:20:12.615Z,99895.89
2023-01-17T05:22:39.168Z,99893.17
2023-01-17T05:25:06.269Z,99890.16
2023-01-17T05:27:32.826Z,99886.91
2023-01-17T05:29:59.053Z,99883.89
2023-01-17T05:32:25.453Z,99884.76
2023-01-17T05:34:52.324Z,99882.73
2023-01-17T05:37:18.997Z,99884.73
2023-01-17T05:39:45.485Z,99883.20
2023-01-17T05:42:13.998Z,99876.82
2023-01-17T05:44:40.493Z,99876.09
2023-01-17T05:47:07.536Z,99874.48
2023-01-17T05:49:34.281Z,99872.77
2023-01-17T05:52:01.581Z,99866.41
2023-01-17T05:54:28.110Z,99867.48
2023-01-17T05:56:54.455Z,99878.06
2023-01-17T05:59:32.394Z,99873.77
2023-01-17T06:08:18.736Z,99852.93
2023-01-17T06:10:47.113Z,99854.48
2023-01-17T06:13:15.500Z,99852.23
2023-01-17T06:15:42.871Z,99849.48
2023-01-17T06:18:11.485Z,99838.13
2023-01-17T06:20:38.714Z,99850.12
2023-01-17T06:23:07.699Z,99845.30
2023-01-17T06:25:45.515Z,99846.84
2023-01-17T06:28:13.797Z,99850.00
2023-01-17T06:30:41.011Z,99847.96
2023-01-17T06:33:08.352Z,99851.17
2023-01-17T06:35:35.510Z,99861.40
2023-01-17T06:38:02.477Z,99858.08
2023-01-17T06:40:29.704Z,99851.02
2023-01-17T10:48:22.416Z,99769.74
2023-01-17T10:51:00.346Z,99774.91
2023-01-17T10:53:46.408Z,99771.92
2023-01-17T10:56:14.029Z,99770.16
2023-01-17T10:58:41.188Z,99771.73
2023-01-17T11:01:19.768Z,99774.88
2023-01-17T11:03:50.772Z,99768.27
2023-01-17T11:06:17.732Z,99753.61
2023-01-17T15:21:30.564Z,99611.70
2023-01-17T15:24:03.977Z,99617.34
2023-01-17T15:26:34.745Z,99610.46
2023-01-17T15:29:06.666Z,99618.33
2023-01-17T15:31:39.999Z,99619.60
2023-01-17T15:34:32.264Z,99626.44
2023-01-17T15:37:01.752Z,99634.17
2023-01-17T15:39:31.075Z,99631.55
2023-01-17T15:41:59.840Z,99632.88
2023-01-17T15:44:47.507Z,99627.05
2023-01-17T15:47:32.860Z,99626.69
2023-01-17T15:50:00.504Z,99634.04
2023-01-17T15:52:27.903Z,99638.13
2023-01-17T15:55:10.949Z,99642.02
2023-01-17T15:57:38.308Z,99649.25
2023-01-17T16:00:19.208Z,99643.20
2023-01-17T16:02:46.987Z,99643.74
2023-01-17T16:05:23.463Z,99649.56
2023-01-17T16:07:50.447Z,99637.90
2023-01-17T16:10:21.564Z,99638.45
2023-01-17T16:12:49.864Z,99633.80
2023-01-17T16:15:18.387Z,99633.40
2023-01-17T16:17:48.196Z,99628.99
2023-01-17T16:20:35.158Z,99609.63
2023-01-17T16:23:02.768Z,99611.19
2023-01-17T16:25:32.940Z,99606.84
2023-01-17T16:27:59.986Z,99606.98
2023-01-17T16:30:27.473Z,99600.61
2023-01-17T16:32:56.713Z,99597.77
2023-01-17T16:35:25.481Z,99599.13
2023-01-17T16:38:03.048Z,99603.20
2023-01-17T16:40:31.962Z,99611.11
2023-01-17T16:42:59.343Z,99613.01
2023-01-17T16:45:26.359Z,99632.52
2023-01-17T16:47:54.139Z,99633.08
2023-01-17T16:50:22.938Z,99630.80
2023-01-17T16:52:51.220Z,99618.12
2023-01-17T16:55:18.510Z,99627.19
2023-01-17T16:57:45.815Z,99619.25
2023-01-17T17:00:13.116Z,99629.86
2023-01-17T17:02:40.976Z,99630.65
2023-01-17T17:05:08.738Z,99619.83
2023-01-17T17:07:37.533Z,99614.11
2023-01-17T17:10:05.547Z,99622.23
2023-01-17T17:12:32.468Z,99638.30
2023-01-17T17:14:59.358Z,99632.75
2023-01-17T17:17:27.235Z,99631.01
2023-01-17T17:19:54.141Z,99618.27
2023-01-17T17:22:21.020Z,99615.55
2023-01-17T17:24:47.955Z,99599.14
2023-01-17T17:27:15.015Z,99599.03
2023-01-17T17:29:42.023Z,99602.02
2023-01-17T17:32:11.759Z,99591.07
2023-01-17T17:34:38.809Z,99593.97
2023-01-17T17:37:05.723Z,99591.18
2023-01-17T17:39:32.959Z,99588.48
2023-01-17T17:41:59.922Z,99589.78
2023-01-17T17:44:27.541Z,99592.36
2023-01-17T17:46:54.452Z,99601.23
2023-01-17T17:49:22.756Z,99604.67
2023-01-17T17:51:50.347Z,99595.70
2023-01-17T17:54:17.451Z,99589.86
2023-01-17T17:56:47.510Z,99589.33
2023-01-17T17:59:18.304Z,99591.39
2023-01-17T18:01:46.138Z,99594.42
2023-01-17T18:04:13.125Z,99597.77
2023-01-17T18:06:40.827Z,99596.19
2023-01-17T18:09:09.072Z,99602.78
2023-01-17T18:11:37.458Z,99594.59
2023-01-17T18:14:04.907Z,99585.95
2023-01-17T18:16:36.242Z,99570.58
2023-01-17T18:19:03.637Z,99576.52
2023-01-17T18:21:37.288Z,99578.86
2023-01-17T18:24:12.526Z,99571.42
2023-01-17T18:26:43.844Z,99568.35
2023-01-17T18:29:14.736Z,99575.05
2023-01-17T18:31:42.778Z,99586.02
2023-01-17T18:34:14.607Z,99578.48
2023-01-17T18:36:42.183Z,99581.42
2023-01-17T18:39:20.560Z,99577.18
2023-01-17T18:41:47.928Z,99580.69
2023-01-17T18:44:14.808Z,99576.65
2023-01-17T18:46:42.231Z,99580.63
2023-01-17T18:49:12.791Z,99588.65
2023-01-17T18:51:39.718Z,99574.48
2023-01-17T18:54:08.918Z,99601.40
2023-01-17T18:56:35.905Z,99600.80
2023-01-17T18:59:03.266Z,99607.17
2023-01-17T19:01:33.610Z,99616.69
2023-01-17T19:04:02.559Z,99621.57
2023-01-17T19:06:31.824Z,99621.70
2023-01-17T19:08:58.966Z,99618.65
2023-01-17T19:11:26.155Z,99621.41
2023-01-17T19:13:53.491Z,99617.27
2023-01-17T19:16:24.571Z,99622.66
2023-01-17T19:18:52.289Z,99610.45
2023-01-17T19:21:20.936Z,99622.95
2023-01-17T19:23:47.957Z,99619.58
2023-01-17T19:26:17.191Z,99619.27
2023-01-17T19:28:45.521Z,99618.04
2023-01-17T19:31:21.040Z,99608.95
2023-01-17T19:33:53.598Z,99611.59
2023-01-17T19:36:23.563Z,99614.80
2023-01-17T19:39:03.385Z,99606.25
2023-01-17T19:41:32.237Z,99614.36
2023-01-17T19:44:04.611Z,99621.70
2023-01-17T19:46:32.614Z,99623.88
2023-01-17T19:48:59.889Z,99624.31
2023-01-17T19:51:27.939Z,99618.40
2023-01-17T19:53:55.306Z,99627.83
2023-01-17T19:56:25.668Z,99630.06
2023-01-17T19:58:52.889Z,99630.02
2023-01-17T20:01:25.312Z,99633.89
2023-01-17T20:03:52.975Z,99632.48
2023-01-17T20:06:21.763Z,99641.34
2023-01-17T20:08:48.847Z,99634.78
2023-01-17T20:11:20.670Z,99638.73
2023-01-17T20:13:48.643Z,99633.59
2023-01-17T20:16:16.230Z,99631.55
2023-01-17T20:18:43.389Z,99632.70
2023-01-17T20:21:20.829Z,99625.77
2023-01-17T20:23:48.054Z,99639.12
2023-01-17T20:26:20.528Z,99641.52
2023-01-17T20:28:48.455Z,99646.46
2023-01-17T20:31:18.123Z,99647.16
2023-01-17T20:33:47.074Z,99639.25
2023-01-17T20:36:15.421Z,99640.79
2023-01-17T20:38:46.259Z,99638.14
2023-01-17T20:41:19.983Z,99626.65
2023-01-17T20:43:48.641Z,99633.86
2023-01-17T20:46:17.690Z,99639.60
2023-01-17T20:48:49.070Z,99631.21
2023-01-17T20:51:16.617Z,99635.63
2023-01-17T20:53:44.275Z,99630.82
2023-01-17T20:56:14.773Z,99642.23
2023-01-17T20:58:42.107Z,99636.67
2023-01-17T21:01:10.144Z,99644.05
2023-01-17T21:03:37.696Z,99646.67
2023-01-17T21:06:06.624Z,99636.11
2023-01-17T21:08:35.573Z,99637.20
2023-01-17T21:11:02.611Z,99637.16
2023-01-17T21:13:29.644Z,99629.13
2023-01-17T21:15:56.811Z,99639.31
2023-01-17T21:18:24.720Z,99647.10
2023-01-17T21:20:51.838Z,99655.73
2023-01-17T21:23:19.065Z,99656.47
2023-01-17T21:25:58.996Z,99656.66
2023-01-17T21:28:27.887Z,99654.79
2023-01-17T21:30:55.370Z,99658.12
2023-01-17T21:33:23.232Z,99657.80
2023-01-17T21:35:50.343Z,99655.60
2023-01-17T21:38:18.287Z,99648.44
2023-01-17T21:40:45.524Z,99651.98
2023-01-17T21:43:12.559Z,99648.58
2023-01-17T21:45:40.618Z,99650.44
2023-01-17T21:48:12.360Z,99648.96
2023-01-17T21:50:39.579Z,99646.95
2023-01-17T21:53:07.161Z,99645.25
2023-01-17T21:55:53.253Z,99652.64
2023-01-17T21:58:39.026Z,99661.19
2023-01-17T22:01:15.803Z,99652.02
2023-01-17T22:03:43.909Z,99660.09
2023-01-17T22:06:11.011Z,99660.48
2023-01-17T22:08:38.444Z,99657.41
2023-01-17T22:11:11.048Z,99650.16
2023-01-17T22:13:38.657Z,99650.22
2023-01-17T22:16:07.262Z,99643.17
2023-01-17T22:18:37.186Z,99644.36
2023-01-17T22:21:19.630Z,99638.88
2023-01-17T22:23:48.893Z,99649.92
2023-01-17T22:26:16.087Z,99639.47
2023-01-17T22:28:43.310Z,99640.28
2023-01-17T22:31:12.195Z,99638.89
2023-01-17T22:33:41.325Z,99639.02
2023-01-17T22:36:09.179Z,99637.42
2023-01-17T22:38:36.423Z,99640.90
2023-01-17T22:41:10.044Z,99640.05
2023-01-17T22:43:38.988Z,99636.86
2023-01-17T22:46:07.903Z,99660.53
2023-01-17T22:48:35.920Z,99655.61
2023-01-17T22:51:03.487Z,99645.36
2023-01-17T22:53:31.605Z,99645.13
2023-01-17T22:56:04.303Z,99644.48
2023-01-17T22:58:33.828Z,99629.31
2023-01-17T23:01:17.813Z,99632.35
2023-01-17T23:03:45.612Z,99625.95
2023-01-17T23:06:21.535Z,99621.31
2023-01-17T23:08:50.773Z,99621.43
2023-01-17T23:11:42.599Z,99617.08
2023-01-17T23:14:12.979Z,99616.33
2023-01-17T23:17:00.306Z,99614.65
2023-01-17T23:19:29.191Z,99601.45
2023-01-17T23:22:18.259Z,99606.19
2023-01-17T23:24:57.916Z,99617.30
2023-01-17T23:27:44.379Z,99615.16
2023-01-17T23:30:13.748Z,99630.66
2023-01-17T23:32:44.527Z,99638.23
2023-01-17T23:35:11.910Z,99626.75
2023-01-17T23:37:57.495Z,99625.30
2023-01-17T23:40:24.423Z,99617.70
2023-01-17T23:43:09.949Z,99629.73
2023-01-17T23:45:37.685Z,99620.07
2023-01-17T23:48:05.675Z,99628.73
2023-01-17T23:50:33.277Z,99625.77
2023-01-17T23:53:00.555Z,99612.47
2023-01-17T23:55:27.445Z,99611.29
2023-01-17T23:57:55.082Z,99610.80
